Terminal Aerodrome Forecast
Issued by NWS Tuscon, AZ

Home | Current Version | Previous Version | Text Only | Print | Product List | Glossary On
Versions: 1 2 3 4 5 6 7 8 9 10 11 12 13 14
311
FTUS45 KTWC 041120
TAFTUS
TAF
KTUS 041120Z 0412/0512 14005KT P6SM SKC
     FM041700 VRB03KT P6SM SKC
     FM042200 35007KT P6SM SKC
     FM050700 14007KT P6SM SKC=

USA.gov is the U.S. government's official web portal to all federal, state and local government web resources and services.